createdAt,value
2023-03-30T00:00:51.997Z,95.94
2023-03-30T00:05:43.665Z,95.02
2023-03-30T00:10:35.320Z,97.01
2023-03-30T00:15:27.282Z,96.76
2023-03-30T00:20:19.374Z,95.38
2023-03-30T00:25:16.603Z,94.69
2023-03-30T00:30:16.022Z,95.83
2023-03-30T00:35:08.399Z,96.80
2023-03-30T00:40:00.057Z,97.53
2023-03-30T00:45:27.546Z,97.38
2023-03-30T00:50:23.528Z,96.67
2023-03-30T00:55:15.249Z,97.21
2023-03-30T01:00:10.530Z,98.69
2023-03-30T01:05:03.964Z,99.59
2023-03-30T01:09:55.911Z,99.49
2023-03-30T01:14:48.142Z,99.28
2023-03-30T01:20:17.473Z,98.70
2023-03-30T01:25:38.807Z,98.93
2023-03-30T01:30:48.381Z,99.75
2023-03-30T01:36:19.981Z,100.00
2023-03-30T01:41:30.802Z,99.48
2023-03-30T01:46:37.738Z,98.71
2023-03-30T01:52:04.010Z,97.99
2023-03-30T01:57:19.318Z,98.89
2023-03-30T02:02:17.408Z,99.14
2023-03-30T02:07:23.009Z,100.00
2023-03-30T02:12:14.935Z,100.00
2023-03-30T02:17:22.753Z,99.67
2023-03-30T02:22:18.415Z,100.00
2023-03-30T02:27:10.621Z,100.00
2023-03-30T02:32:02.518Z,100.00
2023-03-30T02:37:30.673Z,100.00
2023-03-30T02:43:06.651Z,100.00
2023-03-30T02:48:22.170Z,100.00
2023-03-30T02:53:32.137Z,100.00
2023-03-30T02:58:37.115Z,100.00
2023-03-30T03:03:45.372Z,100.00
2023-03-30T03:08:41.124Z,100.00
2023-03-30T03:13:36.632Z,100.00
2023-03-30T03:18:28.306Z,100.00
2023-03-30T03:23:20.157Z,100.00
2023-03-30T03:28:11.883Z,100.00
2023-03-30T03:33:03.719Z,100.00
2023-03-30T03:37:55.864Z,100.00
2023-03-30T03:42:48.285Z,100.00
2023-03-30T03:47:40.123Z,100.00
2023-03-30T03:52:31.858Z,100.00
2023-03-30T03:57:23.899Z,100.00
2023-03-30T04:02:16.175Z,100.00
2023-03-30T04:07:08.216Z,100.00
2023-03-30T04:12:00.363Z,100.00
2023-03-30T04:16:52.669Z,100.00
2023-03-30T04:21:49.493Z,100.00
2023-03-30T04:26:41.793Z,100.00
2023-03-30T04:31:35.866Z,100.00
2023-03-30T04:36:27.674Z,100.00
2023-03-30T04:41:20.425Z,100.00
2023-03-30T04:46:12.554Z,100.00
2023-03-30T04:51:06.224Z,100.00
2023-03-30T04:56:00.017Z,100.00
2023-03-30T05:00:52.594Z,100.00
2023-03-30T05:05:46.170Z,100.00
2023-03-30T05:10:42.753Z,100.00
2023-03-30T05:15:34.464Z,100.00
2023-03-30T05:20:26.136Z,100.00
2023-03-30T05:25:17.974Z,100.00
2023-03-30T05:30:10.108Z,100.00
2023-03-30T05:35:01.847Z,100.00
2023-03-30T05:39:53.912Z,100.00
2023-03-30T05:49:52.622Z,100.00
2023-03-30T05:54:44.578Z,100.00
2023-03-30T05:59:39.811Z,100.00
2023-03-30T06:04:31.868Z,100.00
2023-03-30T06:09:25.336Z,100.00
2023-03-30T06:14:17.180Z,100.00
2023-03-30T06:19:08.898Z,100.00
2023-03-30T06:24:02.346Z,100.00
2023-03-30T06:28:54.070Z,100.00
2023-03-30T06:33:45.738Z,100.00
2023-03-30T06:38:38.369Z,100.00
2023-03-30T06:43:30.165Z,100.00
2023-03-30T06:53:51.287Z,100.00
2023-03-30T06:58:43.016Z,100.00
2023-03-30T07:03:34.682Z,100.00
2023-03-30T07:08:26.431Z,100.00
2023-03-30T07:13:20.548Z,100.00
2023-03-30T07:18:15.163Z,100.00
2023-03-30T07:23:08.574Z,100.00
2023-03-30T07:28:02.458Z,100.00
2023-03-30T07:32:56.156Z,100.00
2023-03-30T07:37:51.000Z,100.00
2023-03-30T07:47:49.455Z,100.00
2023-03-30T07:52:41.658Z,100.00
2023-03-30T07:57:33.915Z,99.39
2023-03-30T08:02:25.625Z,95.59
2023-03-30T08:07:21.488Z,94.25
2023-03-30T08:12:15.073Z,93.51
2023-03-30T08:17:10.764Z,93.31
2023-03-30T08:22:03.058Z,92.78
2023-03-30T08:26:54.877Z,91.36
2023-03-30T08:31:47.348Z,89.87
2023-03-30T08:36:39.645Z,87.58
2023-03-30T08:42:34.768Z,87.19
2023-03-30T08:47:39.245Z,84.25
2023-03-30T08:52:32.631Z,82.50
2023-03-30T08:58:09.604Z,82.24
2023-03-30T09:03:17.752Z,83.11
2023-03-30T09:08:29.758Z,81.48
2023-03-30T09:13:28.787Z,80.96
2023-03-30T09:29:25.647Z,77.05
2023-03-30T09:34:53.245Z,77.40
2023-03-30T09:39:47.819Z,77.58
2023-03-30T09:44:56.360Z,76.26
2023-03-30T09:49:57.267Z,74.92
2023-03-30T09:54:49.090Z,75.65
2023-03-30T09:59:41.899Z,74.80
2023-03-30T10:09:44.815Z,74.54
2023-03-30T10:19:50.441Z,88.43
2023-03-30T10:30:12.228Z,100.00
2023-03-30T10:35:10.830Z,100.00
2023-03-30T10:40:18.646Z,100.00
2023-03-30T10:45:27.812Z,100.00
2023-03-30T10:51:09.332Z,100.00
2023-03-30T10:56:06.207Z,100.00
2023-03-30T11:01:13.814Z,100.00
2023-03-30T11:06:18.110Z,100.00
2023-03-30T11:11:21.834Z,100.00
2023-03-30T11:16:25.520Z,100.00
2023-03-30T11:21:46.672Z,100.00
2023-03-30T11:26:51.903Z,100.00
2023-03-30T11:31:58.317Z,100.00
2023-03-30T11:37:09.089Z,100.00
2023-03-30T11:42:27.873Z,100.00
2023-03-30T11:48:20.751Z,100.00
2023-03-30T11:53:28.730Z,100.00
2023-03-30T12:03:55.784Z,100.00
2023-03-30T12:09:00.996Z,100.00
2023-03-30T12:13:56.079Z,100.00
2023-03-30T12:19:27.453Z,100.00
2023-03-30T12:25:07.018Z,100.00
2023-03-30T12:30:23.157Z,100.00
2023-03-30T12:35:54.314Z,100.00
2023-03-30T12:41:06.008Z,100.00
2023-03-30T13:03:25.033Z,100.00
2023-03-30T13:08:39.668Z,100.00
2023-03-30T13:13:55.244Z,100.00
2023-03-30T13:24:32.803Z,100.00
2023-03-30T13:29:30.934Z,100.00
2023-03-30T13:34:54.906Z,100.00
2023-03-30T13:40:37.981Z,100.00
2023-03-30T13:46:15.745Z,100.00
2023-03-30T13:51:19.232Z,100.00
2023-03-30T13:56:12.512Z,98.46
2023-03-30T14:01:14.753Z,98.38
2023-03-30T14:06:21.854Z,96.25
2023-03-30T14:11:23.642Z,93.50
2023-03-30T14:16:25.898Z,90.21
2023-03-30T14:21:23.961Z,88.70
2023-03-30T14:26:26.699Z,86.44
2023-03-30T14:31:21.500Z,86.30
2023-03-30T14:36:20.941Z,82.94
2023-03-30T14:41:28.258Z,80.05
2023-03-30T14:46:20.917Z,77.85
2023-03-30T14:51:51.202Z,76.89
2023-03-30T14:56:57.498Z,74.78
2023-03-30T15:01:49.629Z,73.68
2023-03-30T15:06:41.742Z,73.74
2023-03-30T15:11:38.665Z,73.13
2023-03-30T15:16:33.870Z,72.90
2023-03-30T15:21:36.153Z,71.45
2023-03-30T15:26:28.665Z,70.94
2023-03-30T15:31:20.971Z,70.04
2023-03-30T15:36:19.484Z,69.55
2023-03-30T15:41:16.510Z,68.21
2023-03-30T15:46:15.735Z,68.18
2023-03-30T15:51:30.362Z,66.53
2023-03-30T15:56:41.501Z,66.34
2023-03-30T16:01:58.310Z,65.70
2023-03-30T16:11:59.007Z,62.93
2023-03-30T16:16:51.815Z,64.08
2023-03-30T16:21:45.697Z,64.62
2023-03-30T16:26:37.730Z,63.84
2023-03-30T16:31:29.761Z,64.69
2023-03-30T16:36:24.553Z,65.40
2023-03-30T16:41:21.941Z,65.65
2023-03-30T16:46:19.081Z,66.17
2023-03-30T16:51:16.614Z,66.56
2023-03-30T16:56:23.983Z,67.10
2023-03-30T17:01:18.556Z,68.42
2023-03-30T17:06:12.917Z,69.99
2023-03-30T17:16:14.901Z,70.85
2023-03-30T17:21:09.659Z,71.49
2023-03-30T17:31:21.839Z,72.30
2023-03-30T17:36:23.075Z,73.08
2023-03-30T17:41:19.071Z,73.47
2023-03-30T17:46:13.324Z,73.65
2023-03-30T17:51:05.783Z,74.02
2023-03-30T17:55:58.161Z,74.53
2023-03-30T18:00:52.112Z,74.78
2023-03-30T18:05:46.980Z,73.93
2023-03-30T18:10:40.048Z,75.21
2023-03-30T18:15:33.668Z,76.62
2023-03-30T18:20:39.263Z,78.71
2023-03-30T18:25:32.945Z,80.03
2023-03-30T18:30:38.964Z,81.44
2023-03-30T18:35:34.295Z,82.90
2023-03-30T18:40:33.015Z,84.02
2023-03-30T18:45:29.170Z,84.14
2023-03-30T18:50:38.380Z,85.08
2023-03-30T18:55:34.015Z,86.33
2023-03-30T19:00:29.968Z,86.72
2023-03-30T19:05:25.286Z,87.31
2023-03-30T19:10:21.734Z,88.29
2023-03-30T19:15:27.402Z,89.04
2023-03-30T19:20:23.339Z,90.03
2023-03-30T19:30:24.521Z,91.00
2023-03-30T19:35:17.928Z,91.09
2023-03-30T19:40:17.303Z,90.79
2023-03-30T19:45:09.471Z,90.63
2023-03-30T19:50:04.585Z,91.92
2023-03-30T19:54:56.711Z,94.19
2023-03-30T19:59:49.599Z,94.85
2023-03-30T20:04:41.659Z,95.70
2023-03-30T20:09:34.464Z,99.38
2023-03-30T20:14:26.337Z,100.00
2023-03-30T20:19:28.841Z,100.00
2023-03-30T20:24:21.361Z,100.00
2023-03-30T20:29:14.295Z,100.00
2023-03-30T20:34:15.572Z,100.00
2023-03-30T20:39:09.858Z,100.00
2023-03-30T20:44:04.016Z,100.00
2023-03-30T20:49:04.804Z,100.00
2023-03-30T20:53:56.800Z,100.00
2023-03-30T20:58:48.504Z,100.00
2023-03-30T21:03:49.850Z,100.00
2023-03-30T21:08:42.000Z,100.00
2023-03-30T21:13:34.690Z,100.00
2023-03-30T21:18:29.233Z,100.00
2023-03-30T21:23:22.080Z,100.00
2023-03-30T21:28:14.920Z,100.00
2023-03-30T21:33:07.365Z,100.00
2023-03-30T21:37:59.233Z,100.00
2023-03-30T21:42:50.906Z,100.00
2023-03-30T21:47:42.633Z,100.00
2023-03-30T21:52:35.371Z,100.00
2023-03-30T21:57:27.330Z,100.00
2023-03-30T22:02:19.065Z,100.00
2023-03-30T22:07:11.693Z,100.00
2023-03-30T22:17:34.961Z,99.39
2023-03-30T22:22:26.827Z,99.91
2023-03-30T22:27:18.574Z,97.29
2023-03-30T22:32:10.323Z,95.90
2023-03-30T22:37:02.728Z,97.15
2023-03-30T22:41:54.540Z,96.65
2023-03-30T22:46:47.075Z,97.00
2023-03-30T23:01:53.044Z,99.66
2023-03-30T23:06:45.718Z,100.00
2023-03-30T23:32:08.333Z,98.93
2023-03-30T23:37:00.847Z,99.06
2023-03-30T23:41:53.663Z,99.40
2023-03-30T23:46:45.602Z,99.32
2023-03-30T23:51:37.399Z,98.36
2023-03-30T23:56:29.866Z,98.34
